PAKF

False Pass Airport

False Pass, Alaska, USA
METAR PAKF 181328Z AUTO 34010KT 2 1/2SM -SN BR OVC011 01/M01 A2976 RMK AO2 P0000 FZRANO
Observed Flight Rules
Jan-18 @ 13:28 UTC (17 minutes ago) Instrument Flight Rules
Wind Visibility Clouds Conditions
340° at 10 knots 2 1/2 miles
  • Overcast at 1,100' AGL
  • Light Snow
  • Mist
Temperatures Readings Precipitation
Current 1°C / 34°F
Dewpoint -1°C / 30°F
Humidity 87%
Altimeter 29.76" Hg
Pressure 1007.82 hPa
Elevation 6
Current Rain 0.01
METAR PAKF 181328Z AUTO 34010KT 2 1/2SM -SN BR OVC011 01/M01 A2976 RMK AO2 P0000 FZRANO
Observed Flight Rules
Jan-18 @ 13:28 UTC
(17 minutes ago)
IFR
Wind Visibility
340° at 10 knots 2 1/2 miles
Clouds
  • Overcast at 1,100' AGL
Conditions
  • Light Snow
  • Mist
Temperature Dewpoint
1°C / 34°F -1°C / 30°F
Humidity Altimeter Pressure
87% 29.76" Hg 1007.82 hPa
Current Rain
0.01